sensor_id;sensor_type;location;lat;lon;timestamp;temperature;humidity
57434;DHT22;43277;52.672;6.984;2024-03-02T00:00:10;6.90;99.90
57434;DHT22;43277;52.672;6.984;2024-03-02T00:05:07;6.90;99.90
57434;DHT22;43277;52.672;6.984;2024-03-02T00:07:33;6.90;99.90
57434;DHT22;43277;52.672;6.984;2024-03-02T00:10:00;6.90;99.90
57434;DHT22;43277;52.672;6.984;2024-03-02T00:12:26;7.10;99.90
57434;DHT22;43277;52.672;6.984;2024-03-02T00:14:51;6.90;99.90
57434;DHT22;43277;52.672;6.984;2024-03-02T00:17:25;6.90;99.90
57434;DHT22;43277;52.672;6.984;2024-03-02T00:19:53;6.90;99.90
57434;DHT22;43277;52.672;6.984;2024-03-02T00:22:19;6.90;99.90
57434;DHT22;43277;52.672;6.984;2024-03-02T00:24:44;6.90;99.90
57434;DHT22;43277;52.672;6.984;2024-03-02T00:27:13;6.90;99.90
57434;DHT22;43277;52.672;6.984;2024-03-02T00:29:40;7.00;99.90
57434;DHT22;43277;52.672;6.984;2024-03-02T00:32:12;6.90;99.90
57434;DHT22;43277;52.672;6.984;2024-03-02T00:34:39;6.90;99.90
57434;DHT22;43277;52.672;6.984;2024-03-02T00:37:05;6.90;99.90
57434;DHT22;43277;52.672;6.984;2024-03-02T00:39:31;7.10;99.90
57434;DHT22;43277;52.672;6.984;2024-03-02T00:41:56;7.00;99.90
57434;DHT22;43277;52.672;6.984;2024-03-02T00:44:25;7.00;99.90
57434;DHT22;43277;52.672;6.984;2024-03-02T00:46:51;7.00;99.90
57434;DHT22;43277;52.672;6.984;2024-03-02T00:49:21;7.10;99.90
57434;DHT22;43277;52.672;6.984;2024-03-02T00:51:51;7.10;99.90
57434;DHT22;43277;52.672;6.984;2024-03-02T00:54:21;7.20;99.90
57434;DHT22;43277;52.672;6.984;2024-03-02T00:56:47;7.20;99.90
57434;DHT22;43277;52.672;6.984;2024-03-02T00:59:13;7.30;99.90
57434;DHT22;43277;52.672;6.984;2024-03-02T01:01:39;7.30;99.90
57434;DHT22;43277;52.672;6.984;2024-03-02T01:04:04;7.30;99.90
57434;DHT22;43277;52.672;6.984;2024-03-02T01:06:30;7.30;99.90
57434;DHT22;43277;52.672;6.984;2024-03-02T01:08:56;7.40;99.90
57434;DHT22;43277;52.672;6.984;2024-03-02T01:11:22;7.40;99.90
57434;DHT22;43277;52.672;6.984;2024-03-02T01:13:47;7.30;99.90
57434;DHT22;43277;52.672;6.984;2024-03-02T01:16:13;7.50;99.90
57434;DHT22;43277;52.672;6.984;2024-03-02T01:18:41;7.50;99.90
57434;DHT22;43277;52.672;6.984;2024-03-02T01:21:06;7.50;99.90
57434;DHT22;43277;52.672;6.984;2024-03-02T01:23:32;7.50;99.90
57434;DHT22;43277;52.672;6.984;2024-03-02T01:25:57;7.50;99.90
57434;DHT22;43277;52.672;6.984;2024-03-02T01:28:23;7.50;99.90
57434;DHT22;43277;52.672;6.984;2024-03-02T01:30:49;7.50;99.90
57434;DHT22;43277;52.672;6.984;2024-03-02T01:33:16;7.50;99.90
57434;DHT22;43277;52.672;6.984;2024-03-02T01:35:42;7.60;99.90
57434;DHT22;43277;52.672;6.984;2024-03-02T01:38:07;7.60;99.90
57434;DHT22;43277;52.672;6.984;2024-03-02T01:40:37;7.60;99.90
57434;DHT22;43277;52.672;6.984;2024-03-02T01:43:04;7.60;99.90
57434;DHT22;43277;52.672;6.984;2024-03-02T01:45:30;7.60;99.90
57434;DHT22;43277;52.672;6.984;2024-03-02T01:47:56;7.70;99.90
57434;DHT22;43277;52.672;6.984;2024-03-02T01:50:29;7.70;99.90
57434;DHT22;43277;52.672;6.984;2024-03-02T01:52:58;7.70;99.90
57434;DHT22;43277;52.672;6.984;2024-03-02T01:55:24;7.70;99.90
57434;DHT22;43277;52.672;6.984;2024-03-02T01:57:50;7.80;99.90
57434;DHT22;43277;52.672;6.984;2024-03-02T02:00:22;7.80;99.90
57434;DHT22;43277;52.672;6.984;2024-03-02T02:02:50;7.90;99.90
57434;DHT22;43277;52.672;6.984;2024-03-02T02:05:17;7.80;99.90
57434;DHT22;43277;52.672;6.984;2024-03-02T02:07:43;7.80;99.90
57434;DHT22;43277;52.672;6.984;2024-03-02T02:10:12;7.90;99.90
57434;DHT22;43277;52.672;6.984;2024-03-02T02:12:38;7.90;99.90
57434;DHT22;43277;52.672;6.984;2024-03-02T02:17:49;7.80;99.90
57434;DHT22;43277;52.672;6.984;2024-03-02T02:20:15;7.90;99.90
57434;DHT22;43277;52.672;6.984;2024-03-02T02:22:40;7.80;99.90
57434;DHT22;43277;52.672;6.984;2024-03-02T02:25:06;7.80;99.90
57434;DHT22;43277;52.672;6.984;2024-03-02T02:27:32;7.80;99.90
57434;DHT22;43277;52.672;6.984;2024-03-02T02:29:57;7.90;99.90
57434;DHT22;43277;52.672;6.984;2024-03-02T02:32:23;7.70;99.90
57434;DHT22;43277;52.672;6.984;2024-03-02T02:34:52;7.60;99.90
57434;DHT22;43277;52.672;6.984;2024-03-02T02:37:18;7.70;99.90
57434;DHT22;43277;52.672;6.984;2024-03-02T02:39:44;7.70;99.90
57434;DHT22;43277;52.672;6.984;2024-03-02T02:42:09;7.60;99.90
57434;DHT22;43277;52.672;6.984;2024-03-02T02:44:35;7.60;99.90
57434;DHT22;43277;52.672;6.984;2024-03-02T02:47:00;7.70;99.90
57434;DHT22;43277;52.672;6.984;2024-03-02T02:49:28;7.60;99.90
57434;DHT22;43277;52.672;6.984;2024-03-02T02:51:54;7.60;99.90
57434;DHT22;43277;52.672;6.984;2024-03-02T02:54:19;7.60;99.90
57434;DHT22;43277;52.672;6.984;2024-03-02T02:56:45;7.70;99.90
57434;DHT22;43277;52.672;6.984;2024-03-02T02:59:10;7.70;99.90
57434;DHT22;43277;52.672;6.984;2024-03-02T03:01:36;7.80;99.90
57434;DHT22;43277;52.672;6.984;2024-03-02T03:04:02;7.70;99.90
57434;DHT22;43277;52.672;6.984;2024-03-02T03:06:27;7.70;99.90
57434;DHT22;43277;52.672;6.984;2024-03-02T03:08:53;7.70;99.90
57434;DHT22;43277;52.672;6.984;2024-03-02T03:11:18;7.70;99.90
57434;DHT22;43277;52.672;6.984;2024-03-02T03:13:44;7.80;99.90
57434;DHT22;43277;52.672;6.984;2024-03-02T03:16:10;7.80;99.90
57434;DHT22;43277;52.672;6.984;2024-03-02T03:18:35;7.90;99.90
57434;DHT22;43277;52.672;6.984;2024-03-02T03:21:01;7.80;99.90
57434;DHT22;43277;52.672;6.984;2024-03-02T03:23:27;7.90;99.90
57434;DHT22;43277;52.672;6.984;2024-03-02T03:25:52;7.90;99.90
57434;DHT22;43277;52.672;6.984;2024-03-02T03:28:18;7.90;99.90
57434;DHT22;43277;52.672;6.984;2024-03-02T03:30:44;7.80;99.90
57434;DHT22;43277;52.672;6.984;2024-03-02T03:33:09;7.80;99.90
57434;DHT22;43277;52.672;6.984;2024-03-02T03:35:36;7.80;99.90
57434;DHT22;43277;52.672;6.984;2024-03-02T03:38:01;7.90;99.90
57434;DHT22;43277;52.672;6.984;2024-03-02T03:40:27;7.90;99.90
57434;DHT22;43277;52.672;6.984;2024-03-02T03:42:52;7.90;99.90
57434;DHT22;43277;52.672;6.984;2024-03-02T03:45:18;7.90;99.90
57434;DHT22;43277;52.672;6.984;2024-03-02T03:47:44;7.90;99.90
57434;DHT22;43277;52.672;6.984;2024-03-02T03:50:10;7.90;99.90
57434;DHT22;43277;52.672;6.984;2024-03-02T03:52:35;7.90;99.90
57434;DHT22;43277;52.672;6.984;2024-03-02T03:55:01;7.80;99.90
57434;DHT22;43277;52.672;6.984;2024-03-02T03:57:27;7.80;99.90
57434;DHT22;43277;52.672;6.984;2024-03-02T03:59:53;7.70;99.90
57434;DHT22;43277;52.672;6.984;2024-03-02T04:02:19;7.70;99.90
57434;DHT22;43277;52.672;6.984;2024-03-02T04:04:45;7.70;99.90
57434;DHT22;43277;52.672;6.984;2024-03-02T04:07:10;7.60;99.90
57434;DHT22;43277;52.672;6.984;2024-03-02T04:09:36;7.50;99.90
57434;DHT22;43277;52.672;6.984;2024-03-02T04:12:01;7.60;99.90
57434;DHT22;43277;52.672;6.984;2024-03-02T04:14:27;7.50;99.90
57434;DHT22;43277;52.672;6.984;2024-03-02T04:16:53;7.60;99.90
57434;DHT22;43277;52.672;6.984;2024-03-02T04:19:18;7.40;99.90
57434;DHT22;43277;52.672;6.984;2024-03-02T04:21:44;7.40;99.90
57434;DHT22;43277;52.672;6.984;2024-03-02T04:24:09;7.30;99.90
57434;DHT22;43277;52.672;6.984;2024-03-02T04:26:35;7.30;99.90
57434;DHT22;43277;52.672;6.984;2024-03-02T04:29:01;7.30;99.90
57434;DHT22;43277;52.672;6.984;2024-03-02T04:31:27;7.20;99.90
57434;DHT22;43277;52.672;6.984;2024-03-02T04:33:52;7.20;99.90
57434;DHT22;43277;52.672;6.984;2024-03-02T04:36:19;7.10;99.90
57434;DHT22;43277;52.672;6.984;2024-03-02T04:38:45;7.00;99.90
57434;DHT22;43277;52.672;6.984;2024-03-02T04:41:10;7.00;99.90
57434;DHT22;43277;52.672;6.984;2024-03-02T04:43:36;7.00;99.90
57434;DHT22;43277;52.672;6.984;2024-03-02T04:46:02;7.00;99.90
57434;DHT22;43277;52.672;6.984;2024-03-02T04:48:28;7.00;99.90
57434;DHT22;43277;52.672;6.984;2024-03-02T04:50:53;7.00;99.90
57434;DHT22;43277;52.672;6.984;2024-03-02T04:53:19;7.00;99.90
57434;DHT22;43277;52.672;6.984;2024-03-02T04:55:45;7.10;99.90
57434;DHT22;43277;52.672;6.984;2024-03-02T04:58:19;7.00;99.90
57434;DHT22;43277;52.672;6.984;2024-03-02T05:00:45;7.10;99.90
57434;DHT22;43277;52.672;6.984;2024-03-02T05:03:12;7.00;99.90
57434;DHT22;43277;52.672;6.984;2024-03-02T05:05:38;7.10;99.90
57434;DHT22;43277;52.672;6.984;2024-03-02T05:08:04;7.10;99.90
57434;DHT22;43277;52.672;6.984;2024-03-02T05:10:30;7.00;99.90
57434;DHT22;43277;52.672;6.984;2024-03-02T05:12:55;7.10;99.90
57434;DHT22;43277;52.672;6.984;2024-03-02T05:15:22;7.00;99.90
57434;DHT22;43277;52.672;6.984;2024-03-02T05:17:48;6.90;99.90
57434;DHT22;43277;52.672;6.984;2024-03-02T05:20:13;6.90;99.90
57434;DHT22;43277;52.672;6.984;2024-03-02T05:22:39;6.90;99.90
57434;DHT22;43277;52.672;6.984;2024-03-02T05:25:05;6.90;99.90
57434;DHT22;43277;52.672;6.984;2024-03-02T05:27:31;6.90;99.90
57434;DHT22;43277;52.672;6.984;2024-03-02T05:30:00;6.80;99.90
57434;DHT22;43277;52.672;6.984;2024-03-02T05:32:26;6.80;99.90
57434;DHT22;43277;52.672;6.984;2024-03-02T05:34:52;6.80;99.90
57434;DHT22;43277;52.672;6.984;2024-03-02T05:37:18;6.80;99.90
57434;DHT22;43277;52.672;6.984;2024-03-02T05:39:43;6.80;99.90
57434;DHT22;43277;52.672;6.984;2024-03-02T05:42:09;6.70;99.90
57434;DHT22;43277;52.672;6.984;2024-03-02T05:44:36;6.70;99.90
57434;DHT22;43277;52.672;6.984;2024-03-02T05:47:01;6.70;99.90
57434;DHT22;43277;52.672;6.984;2024-03-02T05:49:27;6.70;99.90
57434;DHT22;43277;52.672;6.984;2024-03-02T05:51:53;6.70;99.90
57434;DHT22;43277;52.672;6.984;2024-03-02T05:54:18;6.60;99.90
57434;DHT22;43277;52.672;6.984;2024-03-02T05:56:44;6.60;99.90
57434;DHT22;43277;52.672;6.984;2024-03-02T05:59:10;6.60;99.90
57434;DHT22;43277;52.672;6.984;2024-03-02T06:01:45;6.60;99.90
57434;DHT22;43277;52.672;6.984;2024-03-02T06:04:17;6.40;99.90
57434;DHT22;43277;52.672;6.984;2024-03-02T06:06:42;6.50;99.90
57434;DHT22;43277;52.672;6.984;2024-03-02T06:09:09;6.60;99.90
57434;DHT22;43277;52.672;6.984;2024-03-02T06:11:38;6.50;99.90
57434;DHT22;43277;52.672;6.984;2024-03-02T06:14:04;6.70;99.90
57434;DHT22;43277;52.672;6.984;2024-03-02T06:16:30;6.60;99.90
57434;DHT22;43277;52.672;6.984;2024-03-02T06:18:56;6.50;99.90
57434;DHT22;43277;52.672;6.984;2024-03-02T06:21:23;6.70;99.90
57434;DHT22;43277;52.672;6.984;2024-03-02T06:23:49;6.60;99.90
57434;DHT22;43277;52.672;6.984;2024-03-02T06:26:15;6.70;99.90
57434;DHT22;43277;52.672;6.984;2024-03-02T06:28:40;6.60;99.90
57434;DHT22;43277;52.672;6.984;2024-03-02T06:31:06;6.80;99.90
57434;DHT22;43277;52.672;6.984;2024-03-02T06:33:32;6.80;99.90
57434;DHT22;43277;52.672;6.984;2024-03-02T06:35:57;6.80;99.90
57434;DHT22;43277;52.672;6.984;2024-03-02T06:38:23;6.80;99.90
57434;DHT22;43277;52.672;6.984;2024-03-02T06:40:49;6.90;99.90
57434;DHT22;43277;52.672;6.984;2024-03-02T06:43:15;6.90;99.90
57434;DHT22;43277;52.672;6.984;2024-03-02T06:45:40;6.90;99.90
57434;DHT22;43277;52.672;6.984;2024-03-02T06:48:06;6.90;99.90
57434;DHT22;43277;52.672;6.984;2024-03-02T06:50:32;6.90;99.90
57434;DHT22;43277;52.672;6.984;2024-03-02T06:52:58;6.90;99.90
57434;DHT22;43277;52.672;6.984;2024-03-02T06:55:29;6.90;99.90
57434;DHT22;43277;52.672;6.984;2024-03-02T06:57:55;6.90;99.90
57434;DHT22;43277;52.672;6.984;2024-03-02T07:00:20;6.90;99.90
57434;DHT22;43277;52.672;6.984;2024-03-02T07:02:46;6.90;99.90
57434;DHT22;43277;52.672;6.984;2024-03-02T07:05:13;7.10;99.90
57434;DHT22;43277;52.672;6.984;2024-03-02T07:07:38;7.00;99.90
57434;DHT22;43277;52.672;6.984;2024-03-02T07:10:05;7.00;99.90
57434;DHT22;43277;52.672;6.984;2024-03-02T07:12:30;7.00;99.90
57434;DHT22;43277;52.672;6.984;2024-03-02T07:14:57;7.00;99.90
57434;DHT22;43277;52.672;6.984;2024-03-02T07:17:29;7.00;99.90
57434;DHT22;43277;52.672;6.984;2024-03-02T07:19:54;7.10;99.90
57434;DHT22;43277;52.672;6.984;2024-03-02T07:22:20;7.10;99.90
57434;DHT22;43277;52.672;6.984;2024-03-02T07:24:46;7.10;99.90
57434;DHT22;43277;52.672;6.984;2024-03-02T07:27:12;7.10;99.90
57434;DHT22;43277;52.672;6.984;2024-03-02T07:29:39;7.10;99.90
57434;DHT22;43277;52.672;6.984;2024-03-02T07:32:06;7.10;99.90
57434;DHT22;43277;52.672;6.984;2024-03-02T07:34:32;7.20;99.90
57434;DHT22;43277;52.672;6.984;2024-03-02T07:36:57;7.20;99.90
57434;DHT22;43277;52.672;6.984;2024-03-02T07:39:23;7.20;99.90
57434;DHT22;43277;52.672;6.984;2024-03-02T07:41:49;7.20;99.90
57434;DHT22;43277;52.672;6.984;2024-03-02T07:44:15;7.20;99.90
57434;DHT22;43277;52.672;6.984;2024-03-02T07:46:48;7.30;99.90
57434;DHT22;43277;52.672;6.984;2024-03-02T07:49:17;7.30;99.90
57434;DHT22;43277;52.672;6.984;2024-03-02T07:51:43;7.40;99.90
57434;DHT22;43277;52.672;6.984;2024-03-02T07:54:09;7.40;99.90
57434;DHT22;43277;52.672;6.984;2024-03-02T07:56:35;7.40;99.90
57434;DHT22;43277;52.672;6.984;2024-03-02T07:59:01;7.40;99.90
57434;DHT22;43277;52.672;6.984;2024-03-02T08:01:33;7.50;99.90
57434;DHT22;43277;52.672;6.984;2024-03-02T08:04:00;7.50;99.90
57434;DHT22;43277;52.672;6.984;2024-03-02T08:06:27;7.60;99.90
57434;DHT22;43277;52.672;6.984;2024-03-02T08:09:00;7.60;99.90
57434;DHT22;43277;52.672;6.984;2024-03-02T08:11:26;7.70;99.90
57434;DHT22;43277;52.672;6.984;2024-03-02T08:13:56;7.80;99.90
57434;DHT22;43277;52.672;6.984;2024-03-02T08:16:25;7.80;99.90
57434;DHT22;43277;52.672;6.984;2024-03-02T08:18:51;7.90;99.90
57434;DHT22;43277;52.672;6.984;2024-03-02T08:21:17;8.00;99.90
57434;DHT22;43277;52.672;6.984;2024-03-02T08:23:43;8.00;99.90
57434;DHT22;43277;52.672;6.984;2024-03-02T08:26:10;8.10;99.90
57434;DHT22;43277;52.672;6.984;2024-03-02T08:28:36;8.10;99.90
57434;DHT22;43277;52.672;6.984;2024-03-02T08:31:06;8.20;99.90
57434;DHT22;43277;52.672;6.984;2024-03-02T08:33:32;8.20;99.90
57434;DHT22;43277;52.672;6.984;2024-03-02T08:35:58;8.20;99.90
57434;DHT22;43277;52.672;6.984;2024-03-02T08:38:23;8.30;99.90
57434;DHT22;43277;52.672;6.984;2024-03-02T08:40:49;8.30;99.90
57434;DHT22;43277;52.672;6.984;2024-03-02T08:43:15;8.40;99.90
57434;DHT22;43277;52.672;6.984;2024-03-02T08:45:41;8.50;99.90
57434;DHT22;43277;52.672;6.984;2024-03-02T08:48:10;8.40;99.90
57434;DHT22;43277;52.672;6.984;2024-03-02T08:50:36;8.40;99.90
57434;DHT22;43277;52.672;6.984;2024-03-02T08:53:05;8.50;99.90
57434;DHT22;43277;52.672;6.984;2024-03-02T08:55:31;8.50;99.90
57434;DHT22;43277;52.672;6.984;2024-03-02T08:57:57;8.60;99.90
57434;DHT22;43277;52.672;6.984;2024-03-02T09:00:23;8.70;99.90
57434;DHT22;43277;52.672;6.984;2024-03-02T09:02:49;8.70;99.90
57434;DHT22;43277;52.672;6.984;2024-03-02T09:05:15;8.70;99.90
57434;DHT22;43277;52.672;6.984;2024-03-02T09:07:41;8.80;99.90
57434;DHT22;43277;52.672;6.984;2024-03-02T09:10:07;8.90;99.90
57434;DHT22;43277;52.672;6.984;2024-03-02T09:12:34;9.00;99.90
57434;DHT22;43277;52.672;6.984;2024-03-02T09:15:03;9.10;99.90
57434;DHT22;43277;52.672;6.984;2024-03-02T09:17:31;9.10;99.90
57434;DHT22;43277;52.672;6.984;2024-03-02T09:19:57;9.20;99.90
57434;DHT22;43277;52.672;6.984;2024-03-02T09:22:23;9.30;99.90
57434;DHT22;43277;52.672;6.984;2024-03-02T09:24:48;9.40;99.90
57434;DHT22;43277;52.672;6.984;2024-03-02T09:27:14;9.50;99.90
57434;DHT22;43277;52.672;6.984;2024-03-02T09:29:40;9.60;99.90
57434;DHT22;43277;52.672;6.984;2024-03-02T09:34:32;9.80;99.90
57434;DHT22;43277;52.672;6.984;2024-03-02T09:36:58;9.90;99.90
57434;DHT22;43277;52.672;6.984;2024-03-02T09:39:24;10.10;99.90
57434;DHT22;43277;52.672;6.984;2024-03-02T09:41:51;10.20;99.90
57434;DHT22;43277;52.672;6.984;2024-03-02T09:44:16;10.40;99.90
57434;DHT22;43277;52.672;6.984;2024-03-02T09:46:43;10.50;99.90
57434;DHT22;43277;52.672;6.984;2024-03-02T09:49:10;10.50;99.90
57434;DHT22;43277;52.672;6.984;2024-03-02T09:51:37;10.60;99.90
57434;DHT22;43277;52.672;6.984;2024-03-02T09:54:03;10.80;99.90
57434;DHT22;43277;52.672;6.984;2024-03-02T09:56:28;11.00;99.90
57434;DHT22;43277;52.672;6.984;2024-03-02T09:58:54;11.00;99.90
57434;DHT22;43277;52.672;6.984;2024-03-02T10:01:19;11.00;99.90
57434;DHT22;43277;52.672;6.984;2024-03-02T10:03:45;11.00;99.90
57434;DHT22;43277;52.672;6.984;2024-03-02T10:06:22;11.10;99.90
57434;DHT22;43277;52.672;6.984;2024-03-02T10:08:49;11.20;99.90
57434;DHT22;43277;52.672;6.984;2024-03-02T10:11:27;11.30;99.90
57434;DHT22;43277;52.672;6.984;2024-03-02T10:14:10;11.40;99.90
57434;DHT22;43277;52.672;6.984;2024-03-02T10:16:39;11.40;99.90
57434;DHT22;43277;52.672;6.984;2024-03-02T10:19:31;11.40;99.90
57434;DHT22;43277;52.672;6.984;2024-03-02T10:22:05;11.60;99.90
57434;DHT22;43277;52.672;6.984;2024-03-02T10:24:43;11.60;99.90
57434;DHT22;43277;52.672;6.984;2024-03-02T10:27:39;12.00;99.90
57434;DHT22;43277;52.672;6.984;2024-03-02T10:30:05;12.00;99.90
57434;DHT22;43277;52.672;6.984;2024-03-02T10:32:31;12.00;99.90
57434;DHT22;43277;52.672;6.984;2024-03-02T10:34:58;12.10;99.90
57434;DHT22;43277;52.672;6.984;2024-03-02T10:37:24;12.00;99.90
57434;DHT22;43277;52.672;6.984;2024-03-02T10:39:49;12.10;99.90
57434;DHT22;43277;52.672;6.984;2024-03-02T10:42:19;12.10;99.90
57434;DHT22;43277;52.672;6.984;2024-03-02T10:44:45;12.10;99.90
57434;DHT22;43277;52.672;6.984;2024-03-02T10:47:12;12.30;99.90
57434;DHT22;43277;52.672;6.984;2024-03-02T10:49:42;12.60;99.90
57434;DHT22;43277;52.672;6.984;2024-03-02T10:52:08;12.70;99.90
57434;DHT22;43277;52.672;6.984;2024-03-02T10:54:34;12.70;99.90
57434;DHT22;43277;52.672;6.984;2024-03-02T10:57:07;12.70;99.90
57434;DHT22;43277;52.672;6.984;2024-03-02T10:59:46;12.80;99.90
57434;DHT22;43277;52.672;6.984;2024-03-02T11:02:15;12.90;99.90
57434;DHT22;43277;52.672;6.984;2024-03-02T11:04:42;12.90;99.90
57434;DHT22;43277;52.672;6.984;2024-03-02T11:07:10;12.90;99.90
57434;DHT22;43277;52.672;6.984;2024-03-02T11:09:40;12.90;99.90
57434;DHT22;43277;52.672;6.984;2024-03-02T11:12:31;13.00;99.90
57434;DHT22;43277;52.672;6.984;2024-03-02T11:15:03;13.20;99.90
57434;DHT22;43277;52.672;6.984;2024-03-02T11:17:30;13.40;99.90
57434;DHT22;43277;52.672;6.984;2024-03-02T11:19:57;13.50;99.90
57434;DHT22;43277;52.672;6.984;2024-03-02T11:22:23;13.50;99.90
57434;DHT22;43277;52.672;6.984;2024-03-02T11:24:50;13.60;99.90
57434;DHT22;43277;52.672;6.984;2024-03-02T11:33:04;13.80;99.90
57434;DHT22;43277;52.672;6.984;2024-03-02T11:35:34;13.80;99.90
57434;DHT22;43277;52.672;6.984;2024-03-02T11:38:01;13.80;99.90
57434;DHT22;43277;52.672;6.984;2024-03-02T11:40:29;13.80;99.90
57434;DHT22;43277;52.672;6.984;2024-03-02T11:42:56;13.80;99.90
57434;DHT22;43277;52.672;6.984;2024-03-02T11:45:25;14.00;99.90
57434;DHT22;43277;52.672;6.984;2024-03-02T11:47:54;14.30;99.90
57434;DHT22;43277;52.672;6.984;2024-03-02T11:50:39;14.50;99.90
57434;DHT22;43277;52.672;6.984;2024-03-02T11:53:06;14.70;99.90
57434;DHT22;43277;52.672;6.984;2024-03-02T11:55:36;14.90;99.90
57434;DHT22;43277;52.672;6.984;2024-03-02T11:58:03;15.10;99.90
57434;DHT22;43277;52.672;6.984;2024-03-02T12:00:29;15.30;99.90
57434;DHT22;43277;52.672;6.984;2024-03-02T12:03:06;15.40;99.80
57434;DHT22;43277;52.672;6.984;2024-03-02T12:05:32;15.40;99.90
57434;DHT22;43277;52.672;6.984;2024-03-02T12:08:02;15.60;99.00
57434;DHT22;43277;52.672;6.984;2024-03-02T12:10:29;15.70;98.20
57434;DHT22;43277;52.672;6.984;2024-03-02T12:13:01;15.70;97.50
57434;DHT22;43277;52.672;6.984;2024-03-02T12:15:32;15.80;97.10
57434;DHT22;43277;52.672;6.984;2024-03-02T12:17:59;15.70;97.00
57434;DHT22;43277;52.672;6.984;2024-03-02T12:20:27;15.50;96.50
57434;DHT22;43277;52.672;6.984;2024-03-02T12:22:55;15.40;97.00
57434;DHT22;43277;52.672;6.984;2024-03-02T12:25:22;15.20;96.60
57434;DHT22;43277;52.672;6.984;2024-03-02T12:27:49;15.10;96.50
57434;DHT22;43277;52.672;6.984;2024-03-02T12:30:19;15.00;96.20
57434;DHT22;43277;52.672;6.984;2024-03-02T12:32:45;14.70;96.10
57434;DHT22;43277;52.672;6.984;2024-03-02T12:35:11;14.50;96.80
57434;DHT22;43277;52.672;6.984;2024-03-02T12:37:50;14.40;97.60
57434;DHT22;43277;52.672;6.984;2024-03-02T12:40:18;14.30;97.40
57434;DHT22;43277;52.672;6.984;2024-03-02T12:42:44;14.20;97.10
57434;DHT22;43277;52.672;6.984;2024-03-02T12:45:11;14.20;97.40
57434;DHT22;43277;52.672;6.984;2024-03-02T12:47:37;14.20;97.60
57434;DHT22;43277;52.672;6.984;2024-03-02T12:50:04;14.10;97.60
57434;DHT22;43277;52.672;6.984;2024-03-02T12:52:30;14.00;97.70
57434;DHT22;43277;52.672;6.984;2024-03-02T12:55:01;14.00;98.20
57434;DHT22;43277;52.672;6.984;2024-03-02T12:57:30;14.00;97.60
57434;DHT22;43277;52.672;6.984;2024-03-02T13:00:04;14.00;97.30
57434;DHT22;43277;52.672;6.984;2024-03-02T13:02:40;14.00;97.90
57434;DHT22;43277;52.672;6.984;2024-03-02T13:05:07;13.90;98.20
57434;DHT22;43277;52.672;6.984;2024-03-02T13:07:37;13.90;97.90
57434;DHT22;43277;52.672;6.984;2024-03-02T13:10:03;14.00;98.70
57434;DHT22;43277;52.672;6.984;2024-03-02T13:12:30;14.00;98.50
57434;DHT22;43277;52.672;6.984;2024-03-02T13:14:58;14.10;99.20
57434;DHT22;43277;52.672;6.984;2024-03-02T13:17:24;14.10;99.20
57434;DHT22;43277;52.672;6.984;2024-03-02T13:19:53;14.10;98.60
57434;DHT22;43277;52.672;6.984;2024-03-02T13:22:19;14.10;98.60
57434;DHT22;43277;52.672;6.984;2024-03-02T13:24:45;14.10;98.40
57434;DHT22;43277;52.672;6.984;2024-03-02T13:27:10;14.20;98.50
57434;DHT22;43277;52.672;6.984;2024-03-02T13:29:36;14.20;98.30
57434;DHT22;43277;52.672;6.984;2024-03-02T13:32:03;14.10;98.50
57434;DHT22;43277;52.672;6.984;2024-03-02T13:34:28;14.20;99.20
57434;DHT22;43277;52.672;6.984;2024-03-02T13:36:54;14.20;99.30
57434;DHT22;43277;52.672;6.984;2024-03-02T13:39:19;14.20;99.30
57434;DHT22;43277;52.672;6.984;2024-03-02T13:41:45;14.10;99.40
57434;DHT22;43277;52.672;6.984;2024-03-02T13:44:18;14.20;99.20
57434;DHT22;43277;52.672;6.984;2024-03-02T13:46:44;14.30;99.00
57434;DHT22;43277;52.672;6.984;2024-03-02T13:49:11;14.30;99.50
57434;DHT22;43277;52.672;6.984;2024-03-02T13:51:37;14.30;99.90
57434;DHT22;43277;52.672;6.984;2024-03-02T13:54:03;14.30;99.80
57434;DHT22;43277;52.672;6.984;2024-03-02T13:56:29;14.30;99.90
57434;DHT22;43277;52.672;6.984;2024-03-02T13:58:58;14.30;99.90
57434;DHT22;43277;52.672;6.984;2024-03-02T14:01:24;14.30;99.90
57434;DHT22;43277;52.672;6.984;2024-03-02T14:03:50;14.30;99.90
57434;DHT22;43277;52.672;6.984;2024-03-02T14:06:16;14.40;99.90
57434;DHT22;43277;52.672;6.984;2024-03-02T14:08:43;14.40;99.90
57434;DHT22;43277;52.672;6.984;2024-03-02T14:11:10;14.30;99.90
57434;DHT22;43277;52.672;6.984;2024-03-02T14:13:41;14.30;99.90
57434;DHT22;43277;52.672;6.984;2024-03-02T14:16:06;14.30;99.90
57434;DHT22;43277;52.672;6.984;2024-03-02T14:18:32;14.30;99.90
57434;DHT22;43277;52.672;6.984;2024-03-02T14:20:58;14.70;99.90
57434;DHT22;43277;52.672;6.984;2024-03-02T14:23:23;15.10;99.40
57434;DHT22;43277;52.672;6.984;2024-03-02T14:25:51;15.30;98.70
57434;DHT22;43277;52.672;6.984;2024-03-02T14:28:16;15.60;99.00
57434;DHT22;43277;52.672;6.984;2024-03-02T14:30:42;16.20;98.10
57434;DHT22;43277;52.672;6.984;2024-03-02T14:33:07;16.80;96.80
57434;DHT22;43277;52.672;6.984;2024-03-02T14:35:33;17.20;95.30
57434;DHT22;43277;52.672;6.984;2024-03-02T14:37:59;17.50;94.40
57434;DHT22;43277;52.672;6.984;2024-03-02T14:40:24;17.80;94.00
57434;DHT22;43277;52.672;6.984;2024-03-02T14:42:52;18.10;93.10
57434;DHT22;43277;52.672;6.984;2024-03-02T14:45:18;18.30;92.50
57434;DHT22;43277;52.672;6.984;2024-03-02T14:47:44;18.50;91.70
57434;DHT22;43277;52.672;6.984;2024-03-02T14:50:10;18.60;90.70
57434;DHT22;43277;52.672;6.984;2024-03-02T14:52:36;18.90;90.40
57434;DHT22;43277;52.672;6.984;2024-03-02T14:55:02;19.10;90.40
57434;DHT22;43277;52.672;6.984;2024-03-02T14:57:32;19.30;90.50
57434;DHT22;43277;52.672;6.984;2024-03-02T14:59:58;19.40;89.50
57434;DHT22;43277;52.672;6.984;2024-03-02T15:02:24;19.20;88.60
57434;DHT22;43277;52.672;6.984;2024-03-02T15:04:49;19.00;88.80
57434;DHT22;43277;52.672;6.984;2024-03-02T15:07:15;18.80;88.90
57434;DHT22;43277;52.672;6.984;2024-03-02T15:09:41;18.80;88.50
57434;DHT22;43277;52.672;6.984;2024-03-02T15:12:07;18.90;88.10
57434;DHT22;43277;52.672;6.984;2024-03-02T15:14:37;18.90;87.30
57434;DHT22;43277;52.672;6.984;2024-03-02T15:17:14;18.70;89.20
57434;DHT22;43277;52.672;6.984;2024-03-02T15:19:43;18.50;89.30
57434;DHT22;43277;52.672;6.984;2024-03-02T15:22:09;18.30;90.10
57434;DHT22;43277;52.672;6.984;2024-03-02T15:24:35;18.30;89.70
57434;DHT22;43277;52.672;6.984;2024-03-02T15:27:01;18.20;89.60
57434;DHT22;43277;52.672;6.984;2024-03-02T15:29:34;18.00;90.10
57434;DHT22;43277;52.672;6.984;2024-03-02T15:31:59;18.00;90.00
57434;DHT22;43277;52.672;6.984;2024-03-02T15:34:25;17.90;90.40
57434;DHT22;43277;52.672;6.984;2024-03-02T15:36:51;18.10;90.20
57434;DHT22;43277;52.672;6.984;2024-03-02T15:39:16;18.50;90.30
57434;DHT22;43277;52.672;6.984;2024-03-02T15:41:46;18.80;89.80
57434;DHT22;43277;52.672;6.984;2024-03-02T15:44:11;18.70;88.60
57434;DHT22;43277;52.672;6.984;2024-03-02T15:46:37;18.30;89.60
57434;DHT22;43277;52.672;6.984;2024-03-02T15:49:03;17.70;90.80
57434;DHT22;43277;52.672;6.984;2024-03-02T15:51:31;17.20;92.30